Time;durP1;ratioP1;P1;durP2;ratioP2;P2;SDS_P1;SDS_P2;PMS_P1;PMS_P2;Temp;Humidity;BMP_temperature;BMP_pressure;BME280_temperature;BME280_humidity;BME280_pressure;Samples;Min_cycle;Max_cycle;Signal;HPM_P1;HPM_P2
2022/08/18 00:02:25;;;;;;;3.92;3.42;;;;;;;26.71;48.27;101220.06;5045228;28;20084;-63
2022/08/18 00:04:51;;;;;;;5.22;3.70;;;;;;;26.69;48.39;101214.81;5045239;28;20048;-62
2022/08/18 00:07:20;;;;;;;3.50;3.20;;;;;;;26.69;48.45;101212.09;5027830;28;20025;-63
2022/08/18 00:09:46;;;;;;;5.88;4.28;;;;;;;26.69;48.23;101220.28;5043683;28;20076;-63
2022/08/18 00:12:14;;;;;;;4.38;3.97;;;;;;;26.69;48.43;101222.19;5024949;28;20022;-63
2022/08/18 00:14:40;;;;;;;3.92;3.53;;;;;;;26.69;48.56;101216.72;5025485;28;20026;-63
2022/08/18 00:17:05;;;;;;;3.28;2.97;;;;;;;26.48;48.63;101180.47;5007781;28;20065;-63
2022/08/18 00:19:30;;;;;;;3.35;3.03;;;;;;;26.49;48.06;101173.13;5025224;28;20053;-62
2022/08/18 00:21:56;;;;;;;4.25;3.35;;;;;;;26.64;48.33;101206.44;5007673;28;20033;-63
2022/08/18 00:24:22;;;;;;;3.70;3.30;;;;;;;26.65;48.46;101197.22;5007667;28;20033;-64
2022/08/18 00:26:47;;;;;;;3.58;3.28;;;;;;;26.51;48.11;101173.75;5024636;28;20022;-64
2022/08/18 00:29:12;;;;;;;4.05;3.58;;;;;;;26.45;48.33;101161.78;5025368;28;20025;-62
2022/08/18 00:31:38;;;;;;;4.97;3.28;;;;;;;26.64;48.31;101195.53;5025034;28;20571;-62
2022/08/18 00:34:03;;;;;;;5.15;3.40;;;;;;;26.49;48.55;101170.38;5025367;28;20083;-63
2022/08/18 00:36:31;;;;;;;3.25;2.95;;;;;;;26.63;48.35;101202.88;5007524;28;20022;-63
2022/08/18 00:38:56;;;;;;;4.13;3.50;;;;;;;26.63;48.38;101204.75;5025017;28;20060;-62
2022/08/18 00:41:25;;;;;;;3.38;3.08;;;;;;;26.58;48.61;101204.56;5024447;28;20029;-62
2022/08/18 00:43:51;;;;;;;3.65;3.22;;;;;;;26.63;48.45;101216.53;5024846;28;20026;-62
2022/08/18 00:46:29;;;;;;;3.97;3.28;;;;;;;26.62;48.46;101214.00;5025041;28;20022;-62
2022/08/18 00:48:55;;;;;;;4.20;3.10;;;;;;;26.42;48.31;101189.44;5025147;28;20026;-63
2022/08/18 00:51:27;;;;;;;4.40;3.33;;;;;;;26.53;48.40;101205.19;4991202;28;20109;-62
2022/08/18 00:53:59;;;;;;;3.80;3.40;;;;;;;26.61;48.35;101221.34;5024957;28;20050;-62
2022/08/18 00:56:30;;;;;;;3.45;3.15;;;;;;;26.60;48.15;101218.84;5024479;28;20025;-64
2022/08/18 00:59:00;;;;;;;3.67;3.38;;;;;;;26.43;48.23;101183.78;5007603;28;20029;-64
2022/08/18 01:01:28;;;;;;;3.58;3.28;;;;;;;26.60;48.27;101213.38;5024613;28;20034;-64
2022/08/18 01:03:59;;;;;;;4.07;3.25;;;;;;;26.44;48.45;101190.13;5016047;28;20073;-63
2022/08/18 01:06:32;;;;;;;3.78;3.40;;;;;;;26.60;48.33;101218.84;5038735;28;20029;-62
2022/08/18 01:08:57;;;;;;;3.38;3.08;;;;;;;26.60;48.29;101213.38;5024804;28;20022;-62
2022/08/18 01:11:23;;;;;;;3.42;3.10;;;;;;;26.58;48.40;101208.13;5019141;28;20135;-63
2022/08/18 01:13:48;;;;;;;4.68;3.22;;;;;;;26.40;48.52;101177.94;5044583;28;20029;-62
2022/08/18 01:21:50;;;;;;;3.92;3.33;;;;;;;26.58;48.55;101210.00;5024789;28;20029;-62
2022/08/18 01:24:18;;;;;;;3.83;3.47;;;;;;;26.57;48.32;101213.78;4992019;28;20027;-62
2022/08/18 01:26:50;;;;;;;3.30;2.72;;;;;;;26.53;48.23;101207.94;5006991;28;20034;-62
2022/08/18 01:29:18;;;;;;;4.88;3.42;;;;;;;26.55;48.50;101210.44;5025184;28;20108;-62
2022/08/18 01:31:54;;;;;;;3.15;2.85;;;;;;;26.55;48.40;101213.16;5006995;28;20479;-61
2022/08/18 01:34:23;;;;;;;5.32;3.10;;;;;;;26.55;48.64;101213.16;4991287;28;20065;-62
2022/08/18 01:36:51;;;;;;;4.50;3.08;;;;;;;26.35;48.45;101184.00;5017842;28;20033;-63
2022/08/18 01:39:17;;;;;;;4.40;3.47;;;;;;;26.54;48.28;101211.50;5030272;28;20075;-62
2022/08/18 01:41:42;;;;;;;3.40;3.10;;;;;;;26.54;48.25;101217.78;5029285;28;20045;-62
2022/08/18 01:44:10;;;;;;;3.42;3.10;;;;;;;26.53;48.46;101212.53;5048189;28;20026;-62
2022/08/18 01:46:37;;;;;;;3.33;3.03;;;;;;;26.53;48.24;101215.28;5047942;28;20097;-64
2022/08/18 01:49:04;;;;;;;4.10;3.13;;;;;;;26.53;48.25;101216.09;5047820;28;20021;-62
2022/08/18 01:51:31;;;;;;;3.78;3.13;;;;;;;26.53;48.24;101212.53;5029929;28;20032;-63
2022/08/18 01:53:57;;;;;;;4.85;3.53;;;;;;;26.52;48.38;101213.59;5047746;28;20161;-63
2022/08/18 01:56:22;;;;;;;4.75;3.40;;;;;;;26.33;48.54;101179.81;5047280;28;20029;-62
2022/08/18 01:58:49;;;;;;;3.65;2.95;;;;;;;26.50;48.32;101207.50;5030247;28;20073;-62
2022/08/18 02:01:14;;;;;;;4.07;3.17;;;;;;;26.52;48.58;101219.06;5029463;28;20071;-63
2022/08/18 02:03:43;;;;;;;4.22;3.25;;;;;;;26.31;48.36;101176.47;5047958;28;20032;-62
2022/08/18 02:06:11;;;;;;;3.22;2.83;;;;;;;26.51;48.25;101222.84;5029737;28;20022;-62
2022/08/18 02:08:37;;;;;;;3.47;2.97;;;;;;;26.51;48.52;101217.38;5029794;28;20041;-63
2022/08/18 02:11:03;;;;;;;3.85;2.80;;;;;;;26.51;48.35;101228.28;5017661;28;20028;-62
2022/08/18 02:13:28;;;;;;;4.45;3.47;;;;;;;26.51;48.47;101225.56;5010077;28;20112;-62
2022/08/18 02:15:54;;;;;;;5.88;3.10;;;;;;;26.50;48.33;101229.31;5009892;28;20034;-62
2022/08/18 02:18:22;;;;;;;3.17;2.83;;;;;;;26.34;48.40;101195.16;4993625;28;20029;-61
2022/08/18 02:20:47;;;;;;;3.28;2.63;;;;;;;26.43;48.52;101207.50;5009708;28;20026;-63
2022/08/18 02:23:13;;;;;;;5.13;3.03;;;;;;;26.49;48.34;101219.47;4993769;28;20026;-62
2022/08/18 02:25:41;;;;;;;3.80;3.05;;;;;;;26.49;48.55;101227.66;5026977;28;20021;-63
2022/08/18 02:28:07;;;;;;;4.05;3.15;;;;;;;26.32;48.74;101195.34;5009871;28;20032;-63
2022/08/18 02:30:33;;;;;;;3.40;2.53;;;;;;;26.47;48.49;101214.25;5026833;28;20057;-63
2022/08/18 02:32:58;;;;;;;3.60;3.03;;;;;;;26.48;48.42;101220.53;5009834;28;20022;-63
2022/08/18 02:35:23;;;;;;;4.18;2.97;;;;;;;26.48;48.43;101221.38;5009500;28;20079;-62
2022/08/18 02:37:49;;;;;;;4.38;2.90;;;;;;;26.47;48.42;101224.31;5027366;28;20026;-62
2022/08/18 02:40:15;;;;;;;3.80;2.80;;;;;;;26.48;48.43;101223.25;5026436;28;20033;-62
2022/08/18 02:42:41;;;;;;;3.90;2.92;;;;;;;26.47;48.52;101224.31;5009423;28;20053;-62
2022/08/18 02:45:06;;;;;;;5.18;3.20;;;;;;;26.47;48.56;101224.31;5009685;28;20026;-63
2022/08/18 02:47:32;;;;;;;4.60;3.10;;;;;;;26.45;48.73;101229.13;5009537;28;20026;-62
2022/08/18 02:49:57;;;;;;;3.88;2.80;;;;;;;26.44;48.29;101231.00;5025559;28;20026;-62
2022/08/18 02:52:31;;;;;;;3.45;2.72;;;;;;;26.45;48.25;101227.22;5009315;28;20334;-62
2022/08/18 02:54:59;;;;;;;2.92;2.45;;;;;;;26.32;48.53;101199.94;5026816;28;20065;-63
2022/08/18 02:57:25;;;;;;;3.88;2.88;;;;;;;26.39;48.52;101215.25;5009627;28;20222;-63
2022/08/18 02:59:50;;;;;;;3.47;2.97;;;;;;;26.43;48.41;101213.78;5026737;28;20029;-64
2022/08/18 03:02:15;;;;;;;3.10;2.72;;;;;;;26.43;48.44;101219.25;4992858;28;20026;-62
2022/08/18 03:04:41;;;;;;;3.45;2.70;;;;;;;26.42;48.39;101217.56;5026696;28;20026;-62
2022/08/18 03:07:07;;;;;;;4.68;2.83;;;;;;;26.23;48.38;101188.44;5026798;28;20018;-62
2022/08/18 03:09:33;;;;;;;3.67;2.78;;;;;;;26.10;48.65;101170.19;4992915;28;20336;-63
2022/08/18 03:11:58;;;;;;;3.53;3.03;;;;;;;26.41;48.45;101220.50;5045101;28;20401;-63
2022/08/18 03:14:24;;;;;;;2.97;2.50;;;;;;;26.41;48.53;101218.59;5011997;28;20025;-61
2022/08/18 03:16:50;;;;;;;3.88;2.95;;;;;;;26.41;48.31;101229.50;5046468;28;20045;-62
2022/08/18 03:19:15;;;;;;;3.92;2.83;;;;;;;26.23;48.55;101199.31;5046081;28;20089;-62
2022/08/18 03:21:42;;;;;;;3.63;2.88;;;;;;;26.41;48.53;101232.22;5028318;28;20089;-62
2022/08/18 03:24:08;;;;;;;4.10;2.70;;;;;;;26.40;48.26;101230.56;5028528;28;20021;-62
2022/08/18 03:26:34;;;;;;;3.65;2.40;;;;;;;26.41;48.34;101225.94;5045248;28;20087;-62
2022/08/18 03:28:59;;;;;;;3.53;3.05;;;;;;;26.25;48.42;101210.00;5028524;28;20033;-63
2022/08/18 03:31:27;;;;;;;4.32;2.60;;;;;;;26.39;48.40;101239.78;5028118;28;20036;-62
2022/08/18 03:33:57;;;;;;;4.38;2.63;;;;;;;26.39;48.37;101242.53;5046141;28;20045;-63
2022/08/18 03:36:24;;;;;;;3.83;2.92;;;;;;;26.39;48.33;101249.88;5045881;28;20025;-63
2022/08/18 03:38:51;;;;;;;3.85;3.08;;;;;;;26.38;48.41;101246.31;5028030;28;20064;-63
2022/08/18 03:41:23;;;;;;;3.75;2.97;;;;;;;26.38;48.30;101232.66;5027537;28;20037;-63
2022/08/18 03:43:49;;;;;;;4.78;2.70;;;;;;;26.20;48.40;101207.91;5028211;28;20025;-63
2022/08/18 03:46:17;;;;;;;4.80;3.40;;;;;;;26.37;48.29;101230.97;5027981;28;20043;-63
2022/08/18 03:48:45;;;;;;;5.72;3.10;;;;;;;26.37;48.68;101238.31;5028175;28;20076;-63
2022/08/18 03:51:16;;;;;;;3.70;2.73;;;;;;;26.13;48.38;101202.47;5028261;28;20030;-63
2022/08/18 03:53:41;;;;;;;3.03;2.72;;;;;;;26.36;48.49;101234.75;5028353;28;20290;-62
2022/08/18 03:56:14;;;;;;;2.83;2.25;;;;;;;26.35;48.55;101241.25;5027324;28;20056;-62
2022/08/18 03:58:48;;;;;;;4.10;2.90;;;;;;;26.35;48.38;101246.72;5028778;28;20471;-63
2022/08/18 04:01:20;;;;;;;3.15;2.58;;;;;;;26.37;48.54;101246.50;5044654;28;20026;-62
2022/08/18 04:03:48;;;;;;;3.00;2.47;;;;;;;26.36;48.52;101250.28;5045584;28;20148;-63
2022/08/18 04:06:19;;;;;;;2.72;2.40;;;;;;;26.35;48.34;101244.00;5027925;28;20025;-62
2022/08/18 04:08:45;;;;;;;5.50;2.80;;;;;;;26.21;48.54;101223.25;5027842;28;20529;-62
2022/08/18 04:11:11;;;;;;;3.45;2.63;;;;;;;26.35;48.28;101245.88;5032202;28;20018;-62
2022/08/18 04:13:38;;;;;;;3.08;2.67;;;;;;;26.34;48.50;101253.22;5007851;28;20510;-63
2022/08/18 04:16:03;;;;;;;3.40;2.30;;;;;;;26.34;48.31;101255.13;5007847;28;20036;-64
2022/08/18 04:18:30;;;;;;;3.92;2.40;;;;;;;26.32;48.36;101254.47;5025480;28;20077;-64
2022/08/18 04:20:57;;;;;;;3.13;2.70;;;;;;;26.12;48.58;101219.03;4991363;28;20040;-63
2022/08/18 04:23:23;;;;;;;5.05;2.83;;;;;;;26.14;48.48;101230.56;5008104;28;20085;-62
2022/08/18 04:25:58;;;;;;;3.05;2.50;;;;;;;26.33;48.32;101256.97;5024665;28;20022;-62
2022/08/18 04:28:23;;;;;;;3.33;2.30;;;;;;;26.13;48.45;101224.28;5025555;28;20463;-63
2022/08/18 04:30:49;;;;;;;3.25;2.35;;;;;;;26.32;48.32;101249.84;5007322;28;20041;-63
2022/08/18 04:33:14;;;;;;;2.80;2.50;;;;;;;26.30;48.42;101260.16;5007855;28;20026;-63
2022/08/18 04:35:39;;;;;;;5.32;2.40;;;;;;;26.30;48.35;101249.25;5007673;28;20060;-62
2022/08/18 04:38:06;;;;;;;4.22;2.45;;;;;;;26.30;48.26;101256.59;5025313;28;20369;-62
2022/08/18 04:40:32;;;;;;;2.97;2.25;;;;;;;26.29;48.52;101255.72;5024621;28;20048;-63
2022/08/18 04:42:58;;;;;;;3.42;2.50;;;;;;;26.30;48.35;101253.84;5007489;28;20033;-63
2022/08/18 04:45:23;;;;;;;4.13;2.65;;;;;;;26.29;48.38;101254.88;5025281;28;20294;-63
2022/08/18 04:47:50;;;;;;;3.28;2.42;;;;;;;26.08;48.47;101224.09;5007447;28;20018;-63
2022/08/18 04:50:15;;;;;;;3.53;2.65;;;;;;;26.10;48.46;101232.03;5007241;28;20026;-63
2022/08/18 04:55:28;;;;;;;2.50;2.00;;;;;;;26.25;48.36;101253.63;5024445;28;20053;-62
2022/08/18 04:57:53;;;;;;;4.18;2.60;;;;;;;25.93;48.17;101204.34;4991502;28;20014;-62
2022/08/18 05:00:18;;;;;;;3.72;2.22;;;;;;;26.11;48.23;101229.09;5007204;28;20032;-63
2022/08/18 05:02:44;;;;;;;4.50;2.72;;;;;;;26.28;48.46;101266.84;5024840;28;20058;-62
2022/08/18 05:05:09;;;;;;;2.92;2.60;;;;;;;26.28;48.26;101262.22;5023985;28;20032;-61
2022/08/18 05:07:35;;;;;;;3.50;2.40;;;;;;;26.27;48.17;101270.63;5023522;28;20033;-63
2022/08/18 05:10:00;;;;;;;2.92;2.58;;;;;;;26.27;48.17;101262.44;5010244;28;20021;-63
2022/08/18 05:12:27;;;;;;;2.97;2.58;;;;;;;26.24;48.15;101260.13;5026415;28;20437;-63
2022/08/18 05:14:53;;;;;;;3.72;2.20;;;;;;;26.27;48.14;101265.16;5030859;28;20025;-63
2022/08/18 05:17:18;;;;;;;3.55;2.55;;;;;;;26.25;48.26;101261.81;5030704;28;20052;-63
2022/08/18 05:19:44;;;;;;;2.88;2.13;;;;;;;26.26;48.26;101258.88;5030752;28;20462;-63
2022/08/18 05:22:10;;;;;;;4.63;2.33;;;;;;;26.05;48.44;101229.94;5048245;28;20017;-62
2022/08/18 05:24:35;;;;;;;3.03;2.45;;;;;;;26.25;48.21;101262.66;5030487;28;20037;-63
2022/08/18 05:27:01;;;;;;;3.45;2.75;;;;;;;26.25;48.39;101259.06;5030032;28;20021;-63
2022/08/18 05:29:28;;;;;;;3.03;2.42;;;;;;;26.25;48.32;101254.50;5048288;28;20060;-62
2022/08/18 05:31:53;;;;;;;3.15;2.55;;;;;;;26.05;48.15;101215.47;5029951;28;20021;-62
2022/08/18 05:34:20;;;;;;;3.33;2.83;;;;;;;26.25;48.22;101245.44;5048497;28;20124;-63
2022/08/18 05:36:49;;;;;;;3.10;2.13;;;;;;;26.24;48.32;101250.06;5030331;28;20029;-63
2022/08/18 05:39:20;;;;;;;3.78;2.67;;;;;;;26.25;48.64;101250.91;5048236;28;20025;-63
2022/08/18 05:42:04;;;;;;;3.47;2.55;;;;;;;26.06;48.53;101236.22;5047032;28;20029;-63
2022/08/18 05:44:33;;;;;;;3.72;2.38;;;;;;;26.24;48.26;101265.59;5013997;28;20018;-63
2022/08/18 05:47:03;;;;;;;3.65;2.85;;;;;;;26.24;48.33;101260.13;5030414;28;20025;-63
2022/08/18 05:49:29;;;;;;;2.88;2.30;;;;;;;26.21;48.43;101257.81;5030266;28;20049;-63
2022/08/18 05:52:13;;;;;;;5.95;2.60;;;;;;;26.24;48.52;101269.13;5029627;28;20030;-64
2022/08/18 05:57:31;;;;;;;3.33;2.38;;;;;;;26.25;48.32;101264.53;5047257;28;20064;-63
2022/08/18 05:59:56;;;;;;;2.70;2.22;;;;;;;26.25;48.34;101267.25;5030001;28;20025;-63
2022/08/18 06:02:30;;;;;;;3.95;2.33;;;;;;;26.25;48.32;101264.53;5047242;28;20543;-63
2022/08/18 06:05:00;;;;;;;3.13;2.30;;;;;;;26.24;48.36;101255.50;5047544;28;20044;-63
2022/08/18 06:07:50;;;;;;;3.53;2.67;;;;;;;26.25;48.22;101256.34;5029975;28;20040;-63
2022/08/18 06:10:15;;;;;;;3.47;2.53;;;;;;;26.03;48.46;101226.56;5024343;28;20022;-63
2022/08/18 06:12:43;;;;;;;3.80;2.30;;;;;;;26.24;48.38;101258.25;5027037;28;20030;-63
2022/08/18 06:15:32;;;;;;;3.72;2.55;;;;;;;26.25;48.42;101267.25;5027439;28;20026;-63
2022/08/18 06:18:22;;;;;;;3.35;2.20;;;;;;;26.24;48.44;101260.13;5027462;28;20079;-63
2022/08/18 06:21:13;;;;;;;3.17;2.33;;;;;;;26.24;48.35;101268.31;5027061;28;20478;-64
2022/08/18 06:23:45;;;;;;;3.50;2.40;;;;;;;26.24;48.33;101279.22;5009826;28;20022;-63
2022/08/18 06:26:22;;;;;;;2.78;2.22;;;;;;;26.24;48.29;101279.22;4992815;28;20042;-63
2022/08/18 06:29:01;;;;;;;3.60;2.47;;;;;;;26.24;48.31;101281.94;5009717;28;20037;-61
2022/08/18 06:31:39;;;;;;;2.47;2.10;;;;;;;26.06;48.46;101252.56;5009669;28;20045;-63
2022/08/18 06:34:20;;;;;;;3.53;2.38;;;;;;;26.04;48.41;101255.53;5027081;28;20081;-63
2022/08/18 06:36:52;;;;;;;3.20;2.47;;;;;;;26.23;48.49;101291.16;5026958;28;20581;-62
2022/08/18 06:39:25;;;;;;;2.97;2.08;;;;;;;26.20;48.33;101283.41;4992902;28;20436;-63
2022/08/18 06:41:52;;;;;;;2.80;2.42;;;;;;;26.21;48.28;101285.94;5008629;28;20394;-63
2022/08/18 06:44:35;;;;;;;2.88;1.95;;;;;;;26.22;48.32;101284.88;4993470;28;20029;-63
2022/08/18 06:47:25;;;;;;;3.03;2.25;;;;;;;26.21;48.48;101295.97;5009172;28;20117;-63
2022/08/18 06:49:59;;;;;;;2.85;2.30;;;;;;;26.21;48.27;101291.38;5009423;28;20069;-63
2022/08/18 06:52:30;;;;;;;3.13;2.15;;;;;;;26.21;48.33;101296.84;5008762;28;20030;-63
2022/08/18 06:54:58;;;;;;;3.17;2.78;;;;;;;26.22;48.54;101294.94;4992617;28;20026;-63
2022/08/18 06:57:54;;;;;;;4.22;2.28;;;;;;;26.22;48.33;101306.69;5008799;28;20095;-63
2022/08/18 07:00:22;;;;;;;2.70;2.30;;;;;;;26.22;48.25;101312.13;5006214;28;20030;-63
2022/08/18 07:03:06;;;;;;;3.63;2.17;;;;;;;26.24;48.51;101306.47;5026481;28;20083;-62
2022/08/18 07:05:33;;;;;;;3.65;2.47;;;;;;;26.22;48.46;101314.88;5009033;28;20034;-64
2022/08/18 07:08:09;;;;;;;2.65;2.13;;;;;;;26.24;48.40;101318.22;5008823;28;20038;-63
2022/08/18 07:10:38;;;;;;;2.83;2.33;;;;;;;26.24;48.37;101322.81;5033272;28;20033;-64
2022/08/18 07:13:27;;;;;;;3.47;2.50;;;;;;;26.24;48.42;101326.38;5028247;28;20094;-64
2022/08/18 07:16:14;;;;;;;2.92;2.35;;;;;;;26.24;48.66;101318.22;5015999;28;20042;-62
2022/08/18 07:18:40;;;;;;;2.45;1.90;;;;;;;26.22;48.13;101320.31;5045917;28;20029;-63
2022/08/18 07:21:05;;;;;;;3.10;2.53;;;;;;;26.24;48.33;101328.28;5045819;28;20029;-63
2022/08/18 07:23:39;;;;;;;3.08;2.25;;;;;;;26.25;48.36;101330.81;5012104;28;20033;-62
2022/08/18 07:26:14;;;;;;;2.35;2.00;;;;;;;26.25;48.52;101330.81;5028274;28;20036;-63
2022/08/18 07:28:43;;;;;;;3.55;1.95;;;;;;;26.25;48.32;101325.38;5045893;28;20048;-63
2022/08/18 07:31:23;;;;;;;2.08;1.88;;;;;;;26.05;48.63;101295.34;5027765;28;20056;-63
2022/08/18 07:34:14;;;;;;;3.67;2.22;;;;;;;26.27;48.60;101325.13;5012048;28;20029;-63
2022/08/18 07:36:46;;;;;;;4.95;2.28;;;;;;;26.26;48.38;101332.47;5016325;28;20043;-64
2022/08/18 07:39:23;;;;;;;4.25;2.30;;;;;;;26.26;48.50;101327.03;5027727;28;20097;-63
2022/08/18 07:41:56;;;;;;;3.30;2.63;;;;;;;26.08;48.27;101294.06;5026930;28;20120;-64
2022/08/18 07:44:52;;;;;;;4.63;2.45;;;;;;;26.25;48.46;101333.53;5028004;28;20049;-63
2022/08/18 07:47:21;;;;;;;3.42;2.17;;;;;;;26.26;48.36;101324.31;5024634;28;20496;-63
2022/08/18 07:49:47;;;;;;;2.75;2.00;;;;;;;26.26;48.38;101331.66;5027551;28;20435;-63
2022/08/18 07:52:25;;;;;;;2.28;2.08;;;;;;;26.27;48.86;101325.13;5045591;28;20109;-63
2022/08/18 07:54:54;;;;;;;3.35;2.28;;;;;;;26.26;48.51;101331.66;5027887;28;20045;-63
2022/08/18 07:57:43;;;;;;;2.97;2.35;;;;;;;26.26;48.60;101329.75;5044982;28;20025;-63
2022/08/18 08:00:24;;;;;;;3.28;2.40;;;;;;;26.21;48.68;101324.09;5027666;28;20049;-62
2022/08/18 08:03:11;;;;;;;3.63;2.00;;;;;;;26.26;48.65;101335.22;5027668;28;20064;-63
2022/08/18 08:05:41;;;;;;;2.97;1.90;;;;;;;26.27;48.66;101346.94;5027630;28;20025;-63
2022/08/18 08:08:24;;;;;;;3.28;2.20;;;;;;;26.28;48.60;101337.72;5027756;28;20029;-63
2022/08/18 08:11:11;;;;;;;2.50;2.25;;;;;;;26.29;48.70;101339.38;5016779;28;20094;-63
2022/08/18 08:14:18;;;;;;;3.05;1.90;;;;;;;26.27;48.57;101334.16;5025297;28;20056;-64
2022/08/18 08:16:49;;;;;;;2.67;2.03;;;;;;;26.29;48.58;101344.84;4997582;28;20034;-63
2022/08/18 08:19:14;;;;;;;2.38;1.88;;;;;;;26.30;48.52;101338.38;5025380;28;20026;-62
2022/08/18 08:21:48;;;;;;;2.97;2.20;;;;;;;26.30;48.60;101341.09;5024951;28;20164;-63
2022/08/18 08:24:23;;;;;;;3.47;2.13;;;;;;;26.30;48.47;101330.19;4991641;28;20025;-63
2022/08/18 08:27:03;;;;;;;2.65;1.92;;;;;;;26.31;48.74;101329.13;5025078;28;20494;-63
2022/08/18 08:29:53;;;;;;;2.47;1.92;;;;;;;26.32;48.60;101328.06;5007795;28;20025;-63
2022/08/18 08:32:27;;;;;;;4.35;2.45;;;;;;;26.11;48.55;101297.22;5025168;28;20044;-63
2022/08/18 08:35:03;;;;;;;3.25;1.92;;;;;;;26.31;48.62;101335.41;5025204;28;20084;-63
2022/08/18 08:37:41;;;;;;;2.90;1.77;;;;;;;26.17;48.67;101303.75;5007592;28;20033;-63
2022/08/18 08:40:28;;;;;;;3.50;2.03;;;;;;;26.33;48.69;101338.75;5007298;28;20460;-63
2022/08/18 08:43:08;;;;;;;3.60;2.33;;;;;;;26.31;48.67;101337.31;5007419;28;20041;-64
2022/08/18 08:45:37;;;;;;;3.08;2.45;;;;;;;26.30;48.52;101331.03;5007340;28;20062;-63
2022/08/18 08:48:25;;;;;;;2.70;1.90;;;;;;;26.34;48.43;101340.47;5026672;28;20026;-63
2022/08/18 08:50:59;;;;;;;2.63;1.63;;;;;;;26.35;48.46;101336.69;5011296;28;20022;-63
2022/08/18 08:53:47;;;;;;;3.30;1.98;;;;;;;26.16;48.50;101302.88;5011616;28;20057;-63
2022/08/18 08:56:15;;;;;;;2.85;2.40;;;;;;;26.34;48.09;101326.00;5011005;28;20026;-63
2022/08/18 08:58:55;;;;;;;1.88;1.60;;;;;;;26.38;48.32;101330.81;4995251;28;20025;-63
2022/08/18 09:01:46;;;;;;;3.17;1.77;;;;;;;26.21;48.60;101301.41;5010921;28;20026;-63
2022/08/18 09:04:42;;;;;;;3.53;1.90;;;;;;;26.42;48.49;101334.81;5028821;28;20038;-63
2022/08/18 09:07:26;;;;;;;2.88;1.77;;;;;;;26.43;48.28;101332.91;4994660;28;20033;-63
2022/08/18 09:10:21;;;;;;;2.30;1.63;;;;;;;26.45;48.25;101335.47;5030518;28;20037;-63
2022/08/18 09:13:09;;;;;;;2.60;1.80;;;;;;;26.43;48.12;101331.03;5030271;28;20052;-63
2022/08/18 09:16:10;;;;;;;2.17;1.85;;;;;;;26.46;48.37;101332.50;5030455;28;20093;-63
2022/08/18 09:18:50;;;;;;;2.22;1.83;;;;;;;26.48;47.88;101340.50;5030467;28;20367;-63
2022/08/18 09:21:34;;;;;;;4.22;2.30;;;;;;;26.49;47.84;101339.44;5030523;28;20033;-63
2022/08/18 09:24:08;;;;;;;1.98;1.60;;;;;;;26.28;47.75;101311.28;5031139;28;20061;-63
2022/08/18 09:26:37;;;;;;;3.20;2.03;;;;;;;26.48;47.76;101341.34;5029947;28;20478;-63
2022/08/18 09:29:36;;;;;;;2.22;1.80;;;;;;;26.49;47.72;101348.47;5048416;28;20021;-64
2022/08/18 09:32:17;;;;;;;2.10;1.90;;;;;;;26.50;47.88;101350.13;5030168;28;20030;-62
2022/08/18 09:35:00;;;;;;;2.63;2.13;;;;;;;26.49;47.56;101348.47;5048219;28;20087;-63
2022/08/18 09:41:30;;;;;;;2.40;2.10;;;;;;;26.49;47.66;101344.91;5047977;28;20033;-63
2022/08/18 09:43:27;;;;;;;2.28;2.08;;;;;;;26.28;47.94;101314.00;5047903;28;20039;-63
2022/08/18 09:46:03;;;;;;;2.47;1.50;;;;;;;26.27;48.02;101320.53;5048079;28;20033;-61
2022/08/18 09:48:29;;;;;;;3.80;2.00;;;;;;;26.30;47.90;101311.09;5048116;28;20052;-62
2022/08/18 09:51:00;;;;;;;2.63;1.90;;;;;;;26.49;47.73;101342.19;5047487;28;20037;-61
2022/08/18 09:53:52;;;;;;;3.63;1.95;;;;;;;26.52;47.60;101341.78;5027049;28;20045;-62
2022/08/18 09:56:47;;;;;;;3.08;2.00;;;;;;;26.53;47.56;101343.44;5027382;28;20030;-63
2022/08/18 09:59:32;;;;;;;3.75;1.77;;;;;;;26.53;47.42;101335.25;5027512;28;20024;-63
2022/08/18 10:02:30;;;;;;;1.98;1.77;;;;;;;26.53;47.86;101343.44;5027219;28;20048;-63
2022/08/18 10:05:08;;;;;;;;;;;;;;;26.52;47.62;101337.16;4994586;28;20061;-63
2022/08/18 10:07:55;;;;;;;2.25;2.05;;;;;;;26.50;47.63;101339.22;5027574;28;19948;-64
2022/08/18 10:10:48;;;;;;;2.28;1.50;;;;;;;26.50;47.48;101339.22;5021934;28;20077;-64
2022/08/18 10:13:54;;;;;;;2.72;1.83;;;;;;;26.51;47.73;101331.91;5006470;28;20081;-62
2022/08/18 10:16:29;;;;;;;2.45;1.50;;;;;;;26.51;47.60;101329.19;5006684;28;20025;-62
2022/08/18 10:19:15;;;;;;;1.95;1.55;;;;;;;26.35;47.45;101298.50;4990567;28;20030;-64
2022/08/18 10:21:57;;;;;;;3.03;2.28;;;;;;;26.54;47.69;101334.19;5006240;28;20090;-63
2022/08/18 10:24:27;;;;;;;2.42;1.80;;;;;;;26.39;47.43;101307.13;5008093;28;20022;-64
2022/08/18 10:26:53;;;;;;;1.77;1.42;;;;;;;26.57;47.58;101333.78;5005870;28;20034;-62
2022/08/18 10:29:27;;;;;;;2.05;1.70;;;;;;;26.57;47.49;101325.63;5007792;28;20032;-61
2022/08/18 10:31:55;;;;;;;2.13;1.60;;;;;;;26.59;47.65;101326.22;5007398;28;20109;-62
2022/08/18 10:34:40;;;;;;;2.10;1.80;;;;;;;26.59;47.32;101327.09;5008082;28;20031;-63
2022/08/18 10:37:36;;;;;;;2.10;1.42;;;;;;;26.60;47.38;101325.19;5007340;28;20045;-61
2022/08/18 10:40:13;;;;;;;1.90;1.70;;;;;;;26.60;47.59;101331.50;5008038;28;20019;-62
2022/08/18 10:42:41;;;;;;;2.30;1.65;;;;;;;26.60;47.48;101323.31;5012355;28;20026;-62
2022/08/18 10:45:14;;;;;;;1.85;1.60;;;;;;;26.41;47.48;101291.38;5022909;28;20035;-62
2022/08/18 10:47:41;;;;;;;2.35;1.52;;;;;;;26.60;47.78;101328.75;5024282;28;20059;-62
2022/08/18 10:50:27;;;;;;;2.00;1.80;;;;;;;26.63;47.29;101327.47;5005910;28;20395;-62
2022/08/18 10:53:05;;;;;;;2.25;1.63;;;;;;;26.63;47.21;101319.31;5005289;28;20069;-63
2022/08/18 10:55:39;;;;;;;3.42;1.92;;;;;;;26.64;47.57;101321.84;5007418;28;20045;-62
2022/08/18 10:58:16;;;;;;;1.92;1.40;;;;;;;26.66;47.83;101321.63;5023895;28;20041;-62
2022/08/18 11:01:08;;;;;;;2.17;1.50;;;;;;;26.67;47.58;101326.00;5025591;28;20032;-62
2022/08/18 11:04:01;;;;;;;1.50;1.30;;;;;;;26.65;47.44;101323.50;5025847;28;20033;-63
2022/08/18 11:06:27;;;;;;;2.25;1.75;;;;;;;26.52;47.40;101303.59;5026953;28;20025;-63
2022/08/18 11:08:59;;;;;;;1.83;1.20;;;;;;;26.66;47.31;101322.44;5025523;28;20106;-62
2022/08/18 11:11:31;;;;;;;2.28;1.52;;;;;;;26.70;47.31;101325.59;5024065;28;20028;-63
2022/08/18 11:14:26;;;;;;;2.25;1.70;;;;;;;26.72;47.46;101330.84;5019163;28;20050;-63
2022/08/18 11:16:51;;;;;;;2.42;1.50;;;;;;;26.72;47.28;101326.25;4978067;28;20034;-62
2022/08/18 11:19:17;;;;;;;2.38;1.70;;;;;;;26.73;47.45;101329.81;5006981;28;20026;-62
2022/08/18 11:21:45;;;;;;;1.90;1.48;;;;;;;26.53;47.15;101286.16;5005277;28;20034;-62
2022/08/18 11:24:26;;;;;;;2.70;1.73;;;;;;;26.75;47.28;101324.97;5005692;28;20034;-62
2022/08/18 11:27:19;;;;;;;1.50;1.40;;;;;;;26.74;47.12;101336.94;5005163;28;20030;-62
2022/08/18 11:29:45;;;;;;;1.73;1.50;;;;;;;26.57;46.92;101309.25;5005726;28;20022;-62
2022/08/18 11:32:25;;;;;;;1.63;1.23;;;;;;;26.72;47.17;101326.25;5004924;28;20025;-62
2022/08/18 11:34:53;;;;;;;2.30;1.88;;;;;;;26.71;47.20;101340.91;5005477;28;20081;-62
2022/08/18 11:37:25;;;;;;;2.00;1.83;;;;;;;26.70;47.20;101325.59;5005092;28;20105;-62
2022/08/18 11:39:52;;;;;;;2.83;1.88;;;;;;;26.70;47.18;101330.22;5005229;28;20026;-62
2022/08/18 11:42:19;;;;;;;1.98;1.60;;;;;;;26.69;47.46;101320.38;5005679;28;20054;-61
2022/08/18 11:44:45;;;;;;;3.13;1.63;;;;;;;26.67;47.25;101329.56;5006620;28;20030;-62
2022/08/18 11:47:20;;;;;;;1.80;1.60;;;;;;;26.67;47.46;101321.41;4988944;28;20064;-62
2022/08/18 11:50:05;;;;;;;1.83;1.60;;;;;;;26.50;47.45;101294.75;4988722;28;20093;-61
2022/08/18 11:52:31;;;;;;;2.22;1.70;;;;;;;26.48;47.61;101284.06;5006466;28;20061;-62
2022/08/18 11:55:02;;;;;;;2.05;1.55;;;;;;;26.65;47.31;101309.88;5026042;28;20026;-62
2022/08/18 11:57:41;;;;;;;1.58;1.20;;;;;;;26.65;47.42;101311.75;5025297;28;20021;-62
2022/08/18 12:00:40;;;;;;;1.70;1.40;;;;;;;26.65;47.51;101314.50;5024668;28;20033;-62
2022/08/18 12:03:10;;;;;;;2.10;1.55;;;;;;;26.64;47.54;101312.81;5025410;28;20034;-62
2022/08/18 12:05:53;;;;;;;2.33;1.70;;;;;;;26.63;47.54;101316.56;5026005;28;20041;-62